Time;durP1;ratioP1;P1;durP2;ratioP2;P2;SDS_P1;SDS_P2;PMS_P1;PMS_P2;Temp;Humidity;BMP_temperature;BMP_pressure;BME280_temperature;BME280_humidity;BME280_pressure;Samples;Min_cycle;Max_cycle;Signal;HPM_P1;HPM_P2
2021/06/26 00:00:22;;;;;;;2.52;0.50;;;;;;;23.23;56.88;99347.64;1763693;79;21069;-55
2021/06/26 00:02:48;;;;;;;3.33;0.50;;;;;;;23.21;57.07;99340.10;1759360;79;21097;-54
2021/06/26 00:05:15;;;;;;;2.65;0.50;;;;;;;23.18;57.29;99331.67;1757322;80;21105;-54
2021/06/26 00:07:41;;;;;;;10.98;0.80;;;;;;;23.17;57.52;99338.19;1757602;80;21541;-55
2021/06/26 00:10:08;;;;;;;4.90;0.60;;;;;;;23.18;57.76;99339.91;1695074;82;21121;-55
2021/06/26 00:12:35;;;;;;;7.50;0.78;;;;;;;23.17;57.87;99341.44;1756313;79;21058;-55
2021/06/26 00:15:01;;;;;;;2.65;0.60;;;;;;;23.18;58.22;99345.91;1758158;79;21489;-54
2021/06/26 00:17:27;;;;;;;5.25;0.72;;;;;;;23.19;58.40;99342.14;1754902;79;21388;-54
2021/06/26 00:19:54;;;;;;;5.10;0.60;;;;;;;23.19;58.77;99347.13;1755319;80;21062;-54
2021/06/26 00:22:20;;;;;;;2.67;0.60;;;;;;;23.17;59.07;99343.67;1757251;79;21051;-55
2021/06/26 00:24:47;;;;;;;3.15;0.57;;;;;;;23.16;59.20;99346.06;1755990;79;21296;-55
2021/06/26 00:27:13;;;;;;;4.87;0.60;;;;;;;23.17;59.45;99347.79;1759999;79;21017;-55
2021/06/26 00:29:40;;;;;;;1.55;0.65;;;;;;;23.19;59.79;99340.26;1754381;80;21628;-55
2021/06/26 00:32:07;;;;;;;9.38;1.45;;;;;;;23.22;60.05;99347.31;1721354;81;21080;-54
2021/06/26 00:34:33;;;;;;;5.45;0.70;;;;;;;23.26;60.12;99348.69;1757268;80;21069;-54
2021/06/26 00:36:59;;;;;;;9.50;0.70;;;;;;;23.29;60.36;99343.75;1757383;79;21135;-55
2021/06/26 00:39:26;;;;;;;2.70;1.25;;;;;;;23.33;60.47;99346.50;1758148;80;21129;-55
2021/06/26 00:41:52;;;;;;;1.72;0.90;;;;;;;23.37;60.64;99348.41;1758473;80;21094;-56
2021/06/26 00:44:18;;;;;;;7.80;1.17;;;;;;;23.38;60.86;99348.77;1758201;79;21411;-56
2021/06/26 00:46:46;;;;;;;5.42;0.80;;;;;;;23.38;61.22;99347.39;1756194;79;21106;-55
2021/06/26 00:49:12;;;;;;;5.22;0.85;;;;;;;23.35;61.42;99340.84;1721505;82;21062;-55
2021/06/26 00:51:41;;;;;;;6.03;1.00;;;;;;;23.33;61.67;99349.24;1760767;80;21451;-55
2021/06/26 00:54:07;;;;;;;2.50;0.85;;;;;;;23.34;61.90;99344.61;1755725;80;21576;-55
2021/06/26 00:56:33;;;;;;;8.58;1.47;;;;;;;23.34;62.13;99339.98;1758992;80;21065;-55
2021/06/26 00:59:00;;;;;;;5.95;1.17;;;;;;;23.36;62.41;99343.94;1758469;80;21048;-55
2021/06/26 01:01:26;;;;;;;7.45;0.93;;;;;;;23.35;62.68;99344.45;1697493;82;21179;-55
2021/06/26 01:03:53;;;;;;;27.35;1.98;;;;;;;23.34;62.89;99345.98;1764651;79;21132;-55
2021/06/26 01:06:20;;;;;;;13.32;1.47;;;;;;;23.33;62.99;99344.26;1766560;79;21072;-55
2021/06/26 01:08:48;;;;;;;9.98;1.00;;;;;;;23.32;63.43;99342.53;1763369;79;21077;-55
2021/06/26 01:11:16;;;;;;;6.30;1.00;;;;;;;23.31;63.43;99347.16;1765187;79;21041;-55
2021/06/26 01:13:42;;;;;;;3.85;0.95;;;;;;;23.29;63.58;99341.00;1736052;79;21108;-55
2021/06/26 01:16:09;;;;;;;4.53;1.32;;;;;;;23.26;63.62;99345.95;1765958;79;21569;-56
2021/06/26 01:18:36;;;;;;;6.87;1.22;;;;;;;23.21;63.74;99351.95;1763795;79;21442;-55
2021/06/26 01:21:03;;;;;;;6.40;0.90;;;;;;;23.17;63.75;99345.05;1761376;79;21392;-55
2021/06/26 01:23:29;;;;;;;8.05;0.90;;;;;;;23.14;63.81;99348.11;1761509;80;21723;-55
2021/06/26 01:25:56;;;;;;;10.20;1.20;;;;;;;23.14;64.01;99344.53;1765587;79;21597;-55
2021/06/26 01:28:22;;;;;;;6.55;0.70;;;;;;;23.13;63.75;99339.55;1765834;79;21135;-55
2021/06/26 01:30:48;;;;;;;4.87;0.80;;;;;;;23.16;63.57;99343.83;1764733;79;21636;-55
2021/06/26 01:33:15;;;;;;;7.30;0.90;;;;;;;23.16;63.50;99350.19;1760699;79;21097;-56
2021/06/26 01:35:41;;;;;;;5.65;1.40;;;;;;;23.17;63.35;99349.67;1766220;79;20997;-56
2021/06/26 01:38:08;;;;;;;7.12;1.05;;;;;;;23.19;63.37;99357.24;1766079;79;21203;-54
2021/06/26 01:40:34;;;;;;;9.98;0.98;;;;;;;23.18;63.25;99355.52;1765853;79;21888;-54
2021/06/26 01:43:00;;;;;;;3.10;0.90;;;;;;;23.19;63.21;99359.98;1764960;79;21670;-55
2021/06/26 01:45:27;;;;;;;6.05;0.90;;;;;;;23.21;63.25;99356.06;1763470;79;21527;-53
2021/06/26 01:47:58;;;;;;;2.77;0.70;;;;;;;23.21;62.83;99353.32;1764843;79;22370;-54
2021/06/26 01:50:26;;;;;;;5.10;0.80;;;;;;;23.20;62.43;99350.73;1768266;79;21013;-55
2021/06/26 01:52:53;;;;;;;4.20;0.70;;;;;;;23.19;62.13;99343.52;1763597;79;21105;-55
2021/06/26 01:55:20;;;;;;;1.52;0.70;;;;;;;23.20;61.65;99337.87;1763306;79;21077;-54
2021/06/26 01:57:48;;;;;;;6.53;0.80;;;;;;;23.20;61.36;99335.12;1770433;79;20967;-55
2021/06/26 02:00:16;;;;;;;3.90;0.62;;;;;;;23.21;61.16;99328.61;1766809;79;21169;-54
2021/06/26 02:02:42;;;;;;;2.02;0.70;;;;;;;23.20;60.65;99328.26;1752734;80;21048;-53
2021/06/26 02:05:10;;;;;;;4.72;0.88;;;;;;;23.19;60.66;99337.52;1737997;80;21096;-54
2021/06/26 02:07:38;;;;;;;5.22;0.70;;;;;;;23.18;60.29;99341.79;1736324;80;21050;-54
2021/06/26 02:10:07;;;;;;;23.12;1.40;;;;;;;23.17;60.13;99338.69;1735830;80;21093;-54
2021/06/26 02:12:33;;;;;;;5.20;0.70;;;;;;;23.14;60.08;99337.13;1735961;80;21116;-53
2021/06/26 02:14:59;;;;;;;6.80;0.82;;;;;;;23.11;60.19;99325.63;1732958;80;21100;-54
2021/06/26 02:17:26;;;;;;;6.72;0.80;;;;;;;23.07;60.28;99323.71;1736755;80;21203;-53
2021/06/26 02:19:54;;;;;;;2.10;0.60;;;;;;;23.03;60.30;99316.84;1732875;80;21718;-53
2021/06/26 02:22:20;;;;;;;7.55;0.75;;;;;;;22.99;60.38;99305.31;1733700;80;21450;-54
2021/06/26 02:24:46;;;;;;;11.57;0.80;;;;;;;22.99;60.80;99304.45;1733289;80;21171;-53
2021/06/26 02:27:13;;;;;;;5.78;0.70;;;;;;;23.00;60.91;99306.18;1734570;80;21183;-53
2021/06/26 02:29:39;;;;;;;4.10;0.80;;;;;;;23.02;61.06;99301.39;1736835;80;21148;-54
2021/06/26 02:32:06;;;;;;;7.08;0.70;;;;;;;23.04;61.08;99299.87;1735458;80;21120;-54
2021/06/26 02:34:32;;;;;;;5.00;0.88;;;;;;;23.06;61.15;99304.66;1734585;80;21085;-54
2021/06/26 02:36:59;;;;;;;2.80;0.62;;;;;;;23.07;61.49;99303.12;1734523;80;21113;-54
2021/06/26 02:39:25;;;;;;;2.87;0.80;;;;;;;23.10;61.86;99311.55;1734284;80;21088;-53
2021/06/26 02:41:53;;;;;;;8.08;0.75;;;;;;;23.10;61.98;99312.92;1729520;80;21126;-54
2021/06/26 02:44:19;;;;;;;3.35;0.68;;;;;;;23.09;62.21;99307.95;1733387;80;21128;-54
2021/06/26 02:46:46;;;;;;;2.67;0.62;;;;;;;23.09;62.21;99302.97;1733741;80;21033;-54
2021/06/26 02:49:12;;;;;;;3.70;0.60;;;;;;;23.08;61.88;99297.13;1734246;80;21103;-54
2021/06/26 02:51:38;;;;;;;3.83;0.80;;;;;;;23.06;61.49;99288.19;1736711;80;21064;-54
2021/06/26 02:54:05;;;;;;;3.35;0.90;;;;;;;23.05;61.09;99290.10;1734172;80;21567;-54
2021/06/26 02:56:31;;;;;;;6.22;0.68;;;;;;;23.05;60.89;99279.63;1737217;80;22246;-54
2021/06/26 02:58:57;;;;;;;21.62;2.45;;;;;;;23.04;60.53;99275.16;1732901;80;21061;-54
2021/06/26 03:01:24;;;;;;;5.87;1.47;;;;;;;23.05;60.38;99295.59;1736977;80;21109;-54
2021/06/26 03:03:50;;;;;;;2.95;0.70;;;;;;;23.07;60.22;99296.27;1754077;79;21093;-54
2021/06/26 03:06:16;;;;;;;3.15;0.70;;;;;;;23.09;60.58;99301.08;1758358;79;21587;-54
2021/06/26 03:08:43;;;;;;;2.95;0.60;;;;;;;23.14;60.43;99295.94;1755858;79;21484;-55
2021/06/26 03:11:10;;;;;;;3.98;0.70;;;;;;;23.20;60.25;99288.95;1755688;80;21034;-54
2021/06/26 03:13:36;;;;;;;5.05;0.80;;;;;;;23.25;60.05;99283.81;1759859;80;21108;-54
2021/06/26 03:16:03;;;;;;;6.95;0.70;;;;;;;23.29;59.92;99284.70;1757346;79;22759;-54
2021/06/26 03:18:32;;;;;;;5.45;0.90;;;;;;;23.34;59.66;99272.70;1760959;79;20900;-54
2021/06/26 03:20:59;;;;;;;1.70;0.72;;;;;;;23.40;59.67;99274.77;1760248;80;20946;-54
2021/06/26 03:23:26;;;;;;;3.87;0.65;;;;;;;23.45;59.55;99272.05;1759730;80;20994;-54
2021/06/26 03:25:52;;;;;;;3.70;0.75;;;;;;;23.48;59.31;99269.80;1759927;79;20915;-54
2021/06/26 03:28:18;;;;;;;5.53;0.78;;;;;;;23.51;59.27;99262.65;1759484;79;21065;-54
2021/06/26 03:30:45;;;;;;;3.15;0.80;;;;;;;23.55;59.21;99265.94;1755141;80;21138;-54
2021/06/26 03:33:11;;;;;;;3.47;0.80;;;;;;;23.57;59.27;99267.97;1757636;79;21065;-54
2021/06/26 03:35:38;;;;;;;1.50;0.70;;;;;;;23.59;59.16;99266.78;1757969;79;22245;-54
2021/06/26 03:38:04;;;;;;;5.22;1.57;;;;;;;23.64;59.21;99270.42;1757366;79;21503;-54
2021/06/26 03:40:32;;;;;;;2.75;0.70;;;;;;;23.67;58.88;99271.44;1756066;80;21458;-54
2021/06/26 03:42:59;;;;;;;2.95;0.80;;;;;;;23.71;59.02;99264.59;1757757;79;21406;-53
2021/06/26 03:45:25;;;;;;;2.62;0.75;;;;;;;23.74;59.17;99271.97;1761245;79;21081;-54
2021/06/26 03:47:52;;;;;;;3.55;0.82;;;;;;;23.80;59.25;99275.08;1756501;79;21073;-54
2021/06/26 03:50:18;;;;;;;4.20;0.80;;;;;;;23.82;58.97;99273.86;1724139;81;21066;-54
2021/06/26 03:52:44;;;;;;;2.58;0.80;;;;;;;23.86;58.87;99280.75;1761969;79;21554;-54
2021/06/26 03:55:12;;;;;;;3.17;1.00;;;;;;;23.90;58.98;99278.02;1754743;79;21597;-54
2021/06/26 03:57:38;;;;;;;4.10;0.95;;;;;;;23.95;58.86;99274.23;1760269;80;21358;-55
2021/06/26 04:00:06;;;;;;;7.35;0.90;;;;;;;24.01;58.84;99273.55;1758878;79;21026;-55
2021/06/26 04:02:33;;;;;;;4.37;1.02;;;;;;;24.10;58.89;99269.77;1759710;80;21074;-53
2021/06/26 04:04:59;;;;;;;6.17;0.80;;;;;;;24.19;58.81;99262.89;1763804;79;21117;-54
2021/06/26 04:07:25;;;;;;;4.60;1.62;;;;;;;24.27;58.54;99258.80;1763062;79;21086;-55
2021/06/26 04:09:52;;;;;;;1.45;0.90;;;;;;;24.37;58.38;99256.73;1765606;79;21070;-55
2021/06/26 04:12:18;;;;;;;6.40;1.10;;;;;;;24.45;58.21;99253.45;1766514;79;21081;-54
2021/06/26 04:17:39;;;;;;;3.15;0.90;;;;;;;24.69;58.28;99244.80;1783546;78;22486;-54
2021/06/26 04:20:07;;;;;;;6.33;1.20;;;;;;;24.75;58.20;99251.00;1756437;80;21599;-53
2021/06/26 04:22:34;;;;;;;6.58;1.00;;;;;;;24.82;58.29;99249.25;1768136;79;21153;-54
2021/06/26 04:25:00;;;;;;;9.28;1.00;;;;;;;24.88;58.00;99241.13;1765302;79;21057;-53
2021/06/26 04:27:27;;;;;;;6.47;1.10;;;;;;;24.93;57.93;99239.24;1779205;79;21610;-54
2021/06/26 04:29:53;;;;;;;6.22;1.20;;;;;;;24.98;57.82;99238.73;1775142;80;21681;-54
2021/06/26 04:32:21;;;;;;;4.10;1.00;;;;;;;25.02;57.97;99234.56;1771207;80;21081;-53
2021/06/26 04:34:48;;;;;;;3.22;0.95;;;;;;;25.04;58.26;99223.72;1748898;78;21083;-54
2021/06/26 04:37:17;;;;;;;3.60;1.15;;;;;;;25.08;58.28;99225.61;1747520;80;21065;-54
2021/06/26 04:39:43;;;;;;;4.12;1.10;;;;;;;25.10;57.96;99220.76;1762467;79;21121;-52
2021/06/26 04:42:09;;;;;;;6.92;1.85;;;;;;;25.11;57.83;99216.45;1773134;78;20973;-53
2021/06/26 04:44:36;;;;;;;5.28;1.10;;;;;;;25.14;58.12;99206.98;1757803;80;21368;-54
2021/06/26 04:47:03;;;;;;;2.47;1.05;;;;;;;25.18;58.12;99205.57;1773252;79;21644;-53
2021/06/26 04:49:30;;;;;;;7.83;1.47;;;;;;;25.22;57.98;99208.31;1757098;79;21116;-54
2021/06/26 04:51:57;;;;;;;3.70;1.12;;;;;;;25.28;58.15;99206.20;1758863;78;21083;-53
2021/06/26 04:54:23;;;;;;;10.15;1.60;;;;;;;25.33;57.86;99202.41;1778724;79;21151;-53
2021/06/26 04:56:49;;;;;;;4.47;1.10;;;;;;;25.43;57.82;99204.94;1762588;78;21060;-54
2021/06/26 04:59:16;;;;;;;4.85;1.20;;;;;;;25.50;58.00;99208.16;1752188;79;22318;-54
2021/06/26 05:01:42;;;;;;;6.90;1.50;;;;;;;25.58;57.69;99208.10;1764354;78;22358;-55
2021/06/26 05:04:08;;;;;;;14.75;1.42;;;;;;;25.65;57.25;99211.01;1759366;80;21112;-56
2021/06/26 05:06:35;;;;;;;7.10;1.77;;;;;;;25.73;57.10;99210.09;1777097;79;21072;-56
2021/06/26 05:09:02;;;;;;;10.93;1.30;;;;;;;25.82;57.18;99207.61;1763620;79;21306;-55
2021/06/26 05:11:28;;;;;;;5.30;1.20;;;;;;;25.90;56.77;99203.41;1768515;79;21417;-56
2021/06/26 05:13:54;;;;;;;14.00;1.37;;;;;;;25.97;56.38;99203.86;1757694;79;21061;-56
2021/06/26 05:16:21;;;;;;;5.20;1.00;;;;;;;26.06;56.65;99214.30;1777204;79;21060;-55
2021/06/26 05:18:47;;;;;;;5.55;1.40;;;;;;;26.14;55.73;99215.60;1760967;79;21057;-56
2021/06/26 05:21:15;;;;;;;4.22;1.20;;;;;;;26.20;55.77;99214.84;1760623;78;21048;-56
2021/06/26 05:23:41;;;;;;;12.18;1.10;;;;;;;26.27;55.69;99219.16;1770126;79;21510;-56
2021/06/26 05:26:09;;;;;;;5.37;1.10;;;;;;;26.33;55.65;99213.73;1765204;79;21128;-56
2021/06/26 05:28:37;;;;;;;4.95;1.40;;;;;;;26.36;55.36;99206.48;1776919;79;21119;-56
2021/06/26 05:31:04;;;;;;;5.22;1.10;;;;;;;26.37;55.56;99204.02;1767361;79;21136;-56
2021/06/26 05:33:31;;;;;;;4.55;1.20;;;;;;;26.40;55.39;99208.31;1765932;79;20894;-55
2021/06/26 05:35:58;;;;;;;16.97;2.12;;;;;;;26.44;55.05;99204.67;1772862;79;21077;-56
2021/06/26 05:38:24;;;;;;;7.62;1.10;;;;;;;26.46;55.07;99200.66;1765716;80;20989;-56
2021/06/26 05:40:50;;;;;;;7.17;1.10;;;;;;;26.50;55.19;99208.05;1773466;79;20959;-56
2021/06/26 05:43:17;;;;;;;6.53;1.52;;;;;;;26.56;55.20;99207.28;1774283;79;21387;-56
2021/06/26 05:45:45;;;;;;;4.15;1.10;;;;;;;26.62;55.11;99214.83;1756624;79;20993;-57
2021/06/26 05:48:11;;;;;;;4.50;1.72;;;;;;;26.69;54.70;99213.88;1771926;79;21916;-57
2021/06/26 05:50:37;;;;;;;11.25;1.80;;;;;;;26.74;54.68;99207.25;1776169;79;20870;-56
2021/06/26 05:53:04;;;;;;;7.78;1.10;;;;;;;26.81;54.79;99212.86;1760570;80;20909;-55
2021/06/26 05:55:30;;;;;;;2.95;1.45;;;;;;;26.87;54.98;99208.50;1759163;79;21410;-56
2021/06/26 05:57:56;;;;;;;7.65;1.85;;;;;;;26.93;54.97;99211.91;1766354;78;21552;-55
2021/06/26 06:00:24;;;;;;;6.30;1.22;;;;;;;26.99;54.54;99207.84;1771698;79;21065;-55
2021/06/26 06:02:50;;;;;;;4.08;1.22;;;;;;;27.07;54.27;99210.50;1764447;79;20953;-55
2021/06/26 06:05:16;;;;;;;10.68;1.10;;;;;;;27.14;54.03;99208.37;1749175;80;20941;-56
2021/06/26 06:07:43;;;;;;;3.67;1.10;;;;;;;27.21;54.24;99212.07;1763164;80;21334;-55
2021/06/26 06:10:12;;;;;;;6.35;1.40;;;;;;;27.25;53.53;99204.56;1776663;79;21076;-55
2021/06/26 06:12:38;;;;;;;3.05;1.10;;;;;;;27.32;53.55;99212.93;1769903;79;21099;-56
2021/06/26 06:15:07;;;;;;;3.52;1.30;;;;;;;27.39;53.21;99207.81;1769168;79;21093;-55
2021/06/26 06:17:34;;;;;;;5.00;1.12;;;;;;;27.44;52.78;99203.09;1757301;78;21065;-54
2021/06/26 06:20:03;;;;;;;10.05;1.30;;;;;;;27.47;52.79;99213.77;1773682;78;21054;-56
2021/06/26 06:22:28;;;;;;;4.20;1.55;;;;;;;27.50;52.29;99207.84;1775697;79;21334;-55
2021/06/26 06:24:55;;;;;;;6.65;1.30;;;;;;;27.53;52.15;99207.45;1771125;79;21104;-55
2021/06/26 06:27:21;;;;;;;6.00;1.32;;;;;;;27.56;52.29;99210.40;1760036;79;21072;-55
2021/06/26 06:29:47;;;;;;;11.12;1.67;;;;;;;27.57;52.03;99203.27;1762633;79;21086;-55
2021/06/26 06:32:14;;;;;;;5.00;1.22;;;;;;;27.63;52.18;99207.17;1775040;79;21100;-57
2021/06/26 06:34:40;;;;;;;6.92;1.40;;;;;;;27.65;51.94;99210.05;1771786;79;21066;-55
2021/06/26 06:37:07;;;;;;;7.03;1.55;;;;;;;27.69;52.12;99207.23;1774012;79;22087;-54
2021/06/26 06:39:33;;;;;;;6.70;1.30;;;;;;;27.75;52.13;99208.34;1768695;78;21033;-55
2021/06/26 06:41:59;;;;;;;8.40;2.08;;;;;;;27.79;51.72;99193.95;1769040;79;21843;-54
2021/06/26 06:44:26;;;;;;;5.72;1.90;;;;;;;27.84;51.94;99198.34;1762362;79;21033;-56
2021/06/26 06:46:52;;;;;;;6.75;1.62;;;;;;;27.89;52.13;99196.39;1776599;79;21112;-55
2021/06/26 06:49:18;;;;;;;5.95;1.47;;;;;;;27.96;52.10;99200.59;1760137;80;21104;-56
2021/06/26 06:51:45;;;;;;;3.40;1.07;;;;;;;28.04;51.96;99200.45;1761415;80;21033;-55
2021/06/26 06:54:12;;;;;;;6.12;1.67;;;;;;;28.08;52.21;99196.22;1770980;79;21408;-54
2021/06/26 06:56:38;;;;;;;2.95;1.22;;;;;;;28.12;51.92;99190.63;1765434;80;21775;-55
2021/06/26 06:59:04;;;;;;;7.22;1.50;;;;;;;28.11;51.34;99197.22;1772243;79;21791;-55
2021/06/26 07:01:32;;;;;;;6.30;1.75;;;;;;;28.13;51.06;99200.12;1711234;81;21619;-54
2021/06/26 07:03:59;;;;;;;8.93;2.05;;;;;;;28.10;51.03;99201.03;1714526;81;21026;-55
2021/06/26 07:06:25;;;;;;;3.35;1.40;;;;;;;28.06;51.74;99200.59;1716013;81;21097;-55
2021/06/26 07:08:52;;;;;;;4.10;1.57;;;;;;;28.08;51.95;99198.98;1711848;82;21331;-55
2021/06/26 07:11:19;;;;;;;5.87;1.80;;;;;;;28.12;52.06;99198.92;1727101;81;21542;-56
2021/06/26 07:13:46;;;;;;;13.68;2.20;;;;;;;28.18;52.00;99195.39;1709909;82;21199;-55
2021/06/26 07:16:13;;;;;;;16.77;2.27;;;;;;;28.29;51.87;99199.00;1705942;81;21061;-54
2021/06/26 07:18:39;;;;;;;7.62;1.25;;;;;;;28.39;52.10;99192.59;1705813;81;21212;-55
2021/06/26 07:21:05;;;;;;;10.95;2.22;;;;;;;28.51;50.86;99194.25;1696763;82;21497;-55
2021/06/26 07:23:32;;;;;;;6.67;1.15;;;;;;;28.55;50.21;99198.34;1695214;83;21583;-56
2021/06/26 07:28:29;;;;;;;4.33;1.30;;;;;;;28.64;50.62;99189.35;1867873;75;22339;-56
2021/06/26 07:30:55;;;;;;;6.33;1.52;;;;;;;28.70;50.70;99187.14;1835792;77;21021;-56
2021/06/26 07:33:22;;;;;;;6.53;1.42;;;;;;;28.81;50.47;99181.08;1838623;77;22474;-55
2021/06/26 07:35:48;;;;;;;10.00;1.40;;;;;;;28.91;50.46;99185.19;1835403;76;21479;-55
2021/06/26 07:38:14;;;;;;;4.47;1.15;;;;;;;29.03;50.16;99174.89;1834327;77;21031;-55
2021/06/26 07:40:41;;;;;;;6.50;1.42;;;;;;;29.12;50.02;99180.05;1838485;77;21187;-54
2021/06/26 07:43:07;;;;;;;4.15;1.15;;;;;;;29.22;49.46;99183.83;1810684;77;21108;-54
2021/06/26 07:45:34;;;;;;;8.83;1.60;;;;;;;29.30;49.42;99185.03;1803664;77;22209;-54
2021/06/26 07:48:00;;;;;;;5.97;1.52;;;;;;;29.37;48.92;99186.46;1807147;77;21209;-54
2021/06/26 07:50:26;;;;;;;8.88;1.35;;;;;;;29.41;48.72;99180.84;1807264;77;21494;-55
2021/06/26 07:52:53;;;;;;;6.72;1.52;;;;;;;29.41;49.23;99187.23;1808587;77;21492;-56
2021/06/26 07:55:19;;;;;;;8.05;1.20;;;;;;;29.44;48.90;99190.11;1803378;77;21157;-54
2021/06/26 07:57:45;;;;;;;6.30;1.52;;;;;;;29.48;48.84;99192.80;1809849;77;22744;-54
2021/06/26 08:00:13;;;;;;;8.93;1.30;;;;;;;29.52;47.88;99194.11;1810294;77;21511;-55
2021/06/26 08:02:39;;;;;;;5.42;1.25;;;;;;;29.54;48.05;99188.66;1806966;77;22269;-56
2021/06/26 08:05:07;;;;;;;5.40;1.30;;;;;;;29.55;47.62;99180.66;1809251;77;21068;-55
2021/06/26 08:07:35;;;;;;;3.77;1.30;;;;;;;29.57;47.81;99184.09;1807992;77;21076;-56
2021/06/26 08:10:02;;;;;;;6.58;1.98;;;;;;;29.62;47.72;99186.22;1807702;77;21103;-56
2021/06/26 08:12:28;;;;;;;5.08;1.25;;;;;;;29.66;47.48;99181.97;1776154;78;21047;-54
2021/06/26 08:14:54;;;;;;;9.73;1.82;;;;;;;29.69;47.98;99181.53;1780892;79;21027;-55
2021/06/26 08:17:20;;;;;;;8.00;1.82;;;;;;;29.76;48.50;99182.42;1782464;79;21465;-55
2021/06/26 08:19:48;;;;;;;6.58;1.35;;;;;;;29.83;48.43;99181.05;1773261;78;21438;-55
2021/06/26 08:22:16;;;;;;;3.62;1.40;;;;;;;29.91;48.78;99183.61;1776249;79;21458;-55
2021/06/26 08:24:43;;;;;;;6.75;1.67;;;;;;;29.96;48.53;99179.69;1781350;78;21013;-55
2021/06/26 08:27:09;;;;;;;8.40;1.87;;;;;;;30.02;48.54;99183.88;1746039;80;21712;-56
2021/06/26 08:29:36;;;;;;;2.47;1.30;;;;;;;30.09;48.93;99179.71;1745978;80;21452;-56
2021/06/26 08:32:03;;;;;;;4.37;1.40;;;;;;;30.15;49.02;99173.83;1746968;80;21068;-55
2021/06/26 08:34:29;;;;;;;7.10;1.20;;;;;;;30.21;48.67;99178.52;1775330;79;21082;-55
2021/06/26 08:36:56;;;;;;;11.22;1.22;;;;;;;30.27;48.50;99178.55;1771908;78;21112;-55
2021/06/26 08:39:22;;;;;;;8.08;2.10;;;;;;;30.32;48.32;99173.19;1740665;80;21053;-55
2021/06/26 08:41:49;;;;;;;7.37;1.50;;;;;;;30.38;48.26;99174.24;1773516;79;21135;-56
2021/06/26 08:44:17;;;;;;;8.88;1.42;;;;;;;30.40;47.28;99167.41;1769105;78;21135;-56
2021/06/26 08:46:49;;;;;;;6.92;1.42;;;;;;;30.43;47.16;99169.77;1746550;80;21091;-55
2021/06/26 08:49:16;;;;;;;15.45;1.32;;;;;;;30.47;47.38;99166.01;1779698;78;20978;-57
2021/06/26 08:51:42;;;;;;;4.53;1.57;;;;;;;30.52;47.97;99167.66;1744076;80;20992;-55
2021/06/26 08:54:16;;;;;;;12.10;1.92;;;;;;;30.60;47.88;99167.42;1758820;79;20922;-56
2021/06/26 08:56:45;;;;;;;9.13;1.90;;;;;;;30.67;47.93;99161.31;1755756;79;20910;-55
2021/06/26 08:59:12;;;;;;;8.60;1.47;;;;;;;30.72;48.25;99152.31;1759910;79;21174;-55
2021/06/26 09:01:39;;;;;;;4.05;1.32;;;;;;;30.75;47.79;99150.50;1755839;79;21120;-56
2021/06/26 09:04:09;;;;;;;6.25;1.75;;;;;;;30.80;47.47;99154.32;1758499;79;20898;-55
2021/06/26 09:06:52;;;;;;;9.45;1.90;;;;;;;30.88;47.96;99152.41;1754475;79;21401;-57
2021/06/26 09:09:35;;;;;;;9.38;1.55;;;;;;;30.97;47.58;99144.97;1754484;79;21100;-55
2021/06/26 09:12:08;;;;;;;7.25;2.02;;;;;;;31.09;47.98;99134.05;1754081;79;21700;-57
2021/06/26 09:14:36;;;;;;;6.60;1.67;;;;;;;31.19;46.94;99137.22;1756965;79;20926;-54
2021/06/26 09:17:04;;;;;;;9.03;1.80;;;;;;;31.30;46.11;99130.13;1748246;79;21056;-55
2021/06/26 09:19:31;;;;;;;8.75;1.62;;;;;;;31.39;45.61;99131.00;1746968;79;21263;-57
2021/06/26 09:22:05;;;;;;;12.13;1.47;;;;;;;31.46;45.22;99133.23;1750507;79;21042;-55
2021/06/26 09:24:43;;;;;;;11.40;1.77;;;;;;;31.52;45.11;99127.30;1749018;79;21121;-55
2021/06/26 09:27:10;;;;;;;5.53;1.07;;;;;;;31.54;43.73;99127.41;1754071;79;21147;-55
2021/06/26 09:29:49;;;;;;;3.00;1.20;;;;;;;31.58;43.22;99127.25;1768388;80;21112;-56
2021/06/26 09:32:24;;;;;;;6.50;1.62;;;;;;;31.57;42.36;99126.93;1771770;80;21077;-57
2021/06/26 09:34:50;;;;;;;7.20;1.30;;;;;;;31.54;43.34;99119.06;1769790;80;21021;-57
2021/06/26 09:37:21;;;;;;;5.75;1.80;;;;;;;31.56;43.60;99125.22;1767920;80;21123;-56
2021/06/26 09:39:47;;;;;;;10.38;1.90;;;;;;;31.57;43.38;99121.37;1772747;80;21045;-57
2021/06/26 09:42:20;;;;;;;7.42;1.45;;;;;;;31.58;43.08;99120.30;1768347;80;21143;-58
2021/06/26 09:44:54;;;;;;;2.72;1.27;;;;;;;31.59;42.57;99119.22;1756243;80;21051;-56
2021/06/26 09:47:41;;;;;;;6.37;2.02;;;;;;;31.54;42.30;99111.25;1775537;80;21104;-57
2021/06/26 09:50:25;;;;;;;8.35;3.25;;;;;;;31.46;42.20;99119.33;1770550;80;21127;-53
2021/06/26 09:53:00;;;;;;;4.03;1.50;;;;;;;31.34;43.25;99128.05;1773487;80;21021;-55
2021/06/26 09:55:32;;;;;;;7.67;1.40;;;;;;;31.27;43.78;99127.23;1767975;80;21662;-54
2021/06/26 09:58:02;;;;;;;3.40;1.20;;;;;;;31.20;44.06;99124.50;1767696;80;21477;-54
2021/06/26 10:00:29;;;;;;;4.60;1.42;;;;;;;31.15;43.96;99129.85;1768102;80;21108;-54
2021/06/26 10:02:56;;;;;;;6.28;1.60;;;;;;;31.12;44.80;99130.84;1766230;80;20986;-55
2021/06/26 10:05:23;;;;;;;10.40;2.20;;;;;;;31.14;45.18;99128.67;1769344;80;22253;-55
2021/06/26 10:07:52;;;;;;;7.42;2.25;;;;;;;31.16;45.53;99132.09;1770910;80;21643;-56
2021/06/26 10:10:21;;;;;;;9.55;2.12;;;;;;;31.20;45.82;99133.38;1768822;80;21069;-56
2021/06/26 10:12:50;;;;;;;10.40;2.20;;;;;;;31.24;46.19;99122.64;1768692;80;21468;-56
2021/06/26 10:15:19;;;;;;;4.87;2.33;;;;;;;31.28;46.62;99120.61;1772096;80;20929;-55
2021/06/26 10:17:45;;;;;;;7.30;2.40;;;;;;;31.30;46.45;99120.39;1771023;80;21439;-55
2021/06/26 10:20:14;;;;;;;9.18;2.58;;;;;;;31.31;46.11;99110.41;1767001;80;21068;-56
2021/06/26 10:22:50;;;;;;;12.58;2.58;;;;;;;31.33;45.94;99105.48;1771059;80;21077;-57
2021/06/26 10:25:15;;;;;;;10.38;2.05;;;;;;;31.37;46.47;99104.52;1767012;80;22040;-55
2021/06/26 10:27:42;;;;;;;4.90;2.20;;;;;;;31.41;46.34;99101.05;1766048;79;21156;-57
2021/06/26 10:30:17;;;;;;;19.37;3.08;;;;;;;31.43;46.41;99098.91;1751196;79;20959;-56
2021/06/26 10:32:55;;;;;;;9.08;1.80;;;;;;;31.46;46.43;99083.17;1749394;79;21013;-56
2021/06/26 10:35:27;;;;;;;3.95;1.87;;;;;;;31.49;45.94;99077.67;1744237;79;21344;-56
2021/06/26 10:38:09;;;;;;;4.83;2.25;;;;;;;31.49;45.22;99064.63;1745758;79;21065;-56
2021/06/26 10:40:46;;;;;;;8.38;2.33;;;;;;;31.48;45.11;99062.91;1746155;79;21879;-56
2021/06/26 10:43:17;;;;;;;4.20;3.00;;;;;;;31.45;45.17;99052.80;1745828;79;21398;-56
2021/06/26 10:45:45;;;;;;;4.60;2.72;;;;;;;31.43;45.53;99036.33;1744205;79;21104;-54
2021/06/26 10:48:22;;;;;;;6.47;2.52;;;;;;;31.46;46.75;99036.42;1748900;79;21493;-57
2021/06/26 10:50:52;;;;;;;3.22;1.50;;;;;;;31.53;46.85;99035.30;1745837;79;21387;-57
2021/06/26 10:53:31;;;;;;;3.95;1.30;;;;;;;31.58;46.24;99041.02;1753729;79;21079;-57
2021/06/26 10:56:04;;;;;;;3.35;1.55;;;;;;;31.66;45.84;99046.02;1748112;79;21460;-54
2021/06/26 10:58:41;;;;;;;3.17;1.62;;;;;;;31.73;46.11;99049.63;1750594;79;20910;-55
2021/06/26 11:01:24;;;;;;;4.78;2.40;;;;;;;31.75;45.31;99049.69;1753166;79;20961;-56
2021/06/26 11:04:09;;;;;;;6.22;1.90;;;;;;;31.76;45.55;99061.67;1754213;79;20949;-56
2021/06/26 11:06:39;;;;;;;2.12;1.92;;;;;;;31.68;45.45;99058.63;1777290;78;21089;-54
2021/06/26 11:09:11;;;;;;;2.22;1.67;;;;;;;31.64;45.95;99052.38;1776272;79;21709;-54
2021/06/26 11:11:45;;;;;;;2.62;1.95;;;;;;;31.59;46.37;99047.44;1751562;80;20891;-57
2021/06/26 11:14:20;;;;;;;5.70;1.62;;;;;;;31.50;46.40;99046.86;1748786;80;20954;-54
2021/06/26 11:16:50;;;;;;;3.77;1.87;;;;;;;31.39;46.22;99057.30;1782815;79;20909;-55
2021/06/26 11:19:20;;;;;;;5.45;2.22;;;;;;;31.27;46.24;99052.16;1779435;79;21841;-54
2021/06/26 11:21:53;;;;;;;4.83;2.35;;;;;;;31.15;46.48;99047.84;1780873;78;20898;-56
2021/06/26 11:24:36;;;;;;;2.70;1.80;;;;;;;31.04;47.21;99056.87;1775416;78;21421;-55
2021/06/26 11:27:04;;;;;;;3.02;1.52;;;;;;;30.97;47.61;99053.79;1760008;80;20961;-55
2021/06/26 11:29:37;;;;;;;5.85;1.35;;;;;;;30.87;47.00;99067.33;1775659;79;20921;-56
2021/06/26 11:32:08;;;;;;;3.35;1.55;;;;;;;30.77;47.11;99067.27;1760845;80;21099;-55
2021/06/26 11:34:34;;;;;;;10.78;3.05;;;;;;;30.69;47.41;99068.91;1742344;80;20910;-56
2021/06/26 11:37:05;;;;;;;7.58;1.92;;;;;;;30.64;48.45;99070.08;1743579;80;20966;-55
2021/06/26 11:39:32;;;;;;;4.42;1.75;;;;;;;30.59;48.62;99078.23;1741748;80;21388;-55